Time;durP1;ratioP1;P1;durP2;ratioP2;P2;SDS_P1;SDS_P2;PMS_P1;PMS_P2;Temp;Humidity;BMP_temperature;BMP_pressure;BME280_temperature;BME280_humidity;BME280_pressure;Samples;Min_cycle;Max_cycle;Signal;HPM_P1;HPM_P2
2023/06/01 00:01:41;;;;;;;4.47;2.30;;;19.90;89.00;;;;;;7390468;19;20159;-74
2023/06/01 00:04:07;;;;;;;6.60;3.63;;;19.70;88.70;;;;;;7389847;19;20139;-75
2023/06/01 00:06:34;;;;;;;4.97;2.60;;;19.50;90.20;;;;;;7392844;19;20213;-75
2023/06/01 00:08:59;;;;;;;5.90;3.00;;;19.60;90.10;;;;;;7389231;19;20178;-74
2023/06/01 00:11:25;;;;;;;4.88;2.80;;;19.60;90.40;;;;;;7390648;19;20134;-74
2023/06/01 00:13:52;;;;;;;3.38;2.58;;;19.50;90.40;;;;;;7391124;19;20133;-73
2023/06/01 00:16:18;;;;;;;2.97;2.15;;;19.50;90.40;;;;;;7384767;19;20178;-73
2023/06/01 00:18:44;;;;;;;2.60;2.00;;;19.20;90.40;;;;;;7392483;19;20142;-73
2023/06/01 00:21:10;;;;;;;3.03;2.33;;;19.20;90.50;;;;;;7391544;19;20154;-73
2023/06/01 00:23:40;;;;;;;3.60;2.63;;;19.20;90.50;;;;;;7389670;19;20147;-73
2023/06/01 00:26:07;;;;;;;5.20;2.90;;;19.40;90.60;;;;;;7389858;19;20171;-74
2023/06/01 00:28:34;;;;;;;4.40;2.72;;;19.50;90.30;;;;;;7392912;19;20138;-74
2023/06/01 00:31:00;;;;;;;5.65;2.70;;;19.50;90.50;;;;;;7390552;19;20143;-72
2023/06/01 00:33:26;;;;;;;3.58;2.30;;;19.60;90.60;;;;;;7388979;19;20741;-74
2023/06/01 00:35:52;;;;;;;3.50;2.40;;;19.60;90.70;;;;;;7382244;19;20138;-74
2023/06/01 00:38:17;;;;;;;5.25;2.33;;;19.60;90.60;;;;;;7391743;19;20134;-74
2023/06/01 00:40:43;;;;;;;3.38;2.50;;;19.20;90.80;;;;;;7390929;19;20153;-74
2023/06/01 00:43:12;;;;;;;4.90;2.70;;;19.10;91.20;;;;;;7381111;19;20172;-74
2023/06/01 00:45:38;;;;;;;4.47;2.45;;;19.30;91.20;;;;;;7390534;19;20213;-74
2023/06/01 00:48:04;;;;;;;4.70;2.58;;;19.30;90.70;;;;;;7388852;19;20139;-74
2023/06/01 00:50:31;;;;;;;2.90;2.20;;;19.00;91.00;;;;;;7391990;19;20138;-74
2023/06/01 00:52:58;;;;;;;7.43;2.55;;;19.10;91.20;;;;;;7391301;19;20139;-74
2023/06/01 00:55:25;;;;;;;2.58;2.10;;;19.30;91.30;;;;;;7390861;19;20198;-74
2023/06/01 00:57:52;;;;;;;7.20;3.22;;;18.90;91.40;;;;;;7393750;19;20138;-74
2023/06/01 01:00:17;;;;;;;3.13;2.30;;;18.80;92.50;;;;;;7393364;19;20138;-74
2023/06/01 01:02:51;;;;;;;3.47;2.30;;;19.00;92.50;;;;;;7394961;19;20153;-75
2023/06/01 01:05:17;;;;;;;3.50;2.35;;;19.10;92.30;;;;;;7396608;19;20156;-73
2023/06/01 01:08:02;;;;;;;3.53;2.42;;;19.20;92.20;;;;;;7396948;19;20135;-74
2023/06/01 01:10:37;;;;;;;4.35;2.00;;;19.30;92.10;;;;;;7395616;19;20537;-73
2023/06/01 01:13:36;;;;;;;5.05;2.03;;;19.00;91.70;;;;;;7394704;19;20161;-74
2023/06/01 01:16:13;;;;;;;3.88;2.10;;;18.50;92.70;;;;;;7395859;19;20158;-75
2023/06/01 01:19:12;;;;;;;5.32;2.83;;;18.50;92.90;;;;;;7398840;19;20141;-74
2023/06/01 01:21:47;;;;;;;3.40;2.13;;;18.50;93.50;;;;;;7391501;19;20435;-74
2023/06/01 01:25:05;;;;;;;2.83;2.20;;;18.80;93.00;;;;;;7391705;19;20153;-74
2023/06/01 01:28:12;;;;;;;4.07;1.92;;;18.90;93.00;;;;;;7387900;19;20165;-73
2023/06/01 01:30:41;;;;;;;4.57;2.42;;;18.70;93.20;;;;;;7391280;19;20146;-74
2023/06/01 01:33:08;;;;;;;4.45;2.50;;;18.80;93.70;;;;;;7388151;19;20146;-74
2023/06/01 01:35:36;;;;;;;3.58;2.60;;;18.90;93.50;;;;;;7388009;19;20150;-74
2023/06/01 01:38:03;;;;;;;4.03;2.67;;;18.90;93.40;;;;;;7386681;19;20138;-74
2023/06/01 01:40:29;;;;;;;4.40;2.63;;;19.00;93.50;;;;;;7389625;19;20183;-74
2023/06/01 01:42:55;;;;;;;4.07;2.13;;;19.00;93.60;;;;;;7383155;19;20557;-73
2023/06/01 01:45:21;;;;;;;3.78;2.42;;;19.00;93.70;;;;;;7388350;19;20146;-74
2023/06/01 01:47:59;;;;;;;2.92;2.40;;;18.90;93.80;;;;;;7389075;19;20146;-74
2023/06/01 01:50:38;;;;;;;4.80;2.83;;;18.90;93.80;;;;;;7388826;19;20610;-74
2023/06/01 01:53:07;;;;;;;5.15;2.80;;;19.00;93.90;;;;;;7388771;19;20150;-73
2023/06/01 01:55:34;;;;;;;3.47;2.40;;;19.00;93.80;;;;;;7387025;19;20161;-73
2023/06/01 01:58:02;;;;;;;3.58;2.60;;;19.00;93.90;;;;;;7388833;19;20151;-74
2023/06/01 02:00:28;;;;;;;2.95;2.10;;;18.80;93.90;;;;;;7386516;19;20152;-75
2023/06/01 02:02:54;;;;;;;3.13;2.13;;;18.80;94.10;;;;;;7388909;19;20139;-74
2023/06/01 02:05:20;;;;;;;6.10;2.20;;;18.80;94.20;;;;;;7387361;19;20141;-74
2023/06/01 02:07:45;;;;;;;3.63;2.42;;;18.80;94.50;;;;;;7386758;19;20142;-74
2023/06/01 02:10:11;;;;;;;3.90;2.53;;;18.70;94.50;;;;;;7386950;19;20159;-74
2023/06/01 02:12:37;;;;;;;3.58;2.47;;;18.80;94.70;;;;;;7389066;19;20675;-74
2023/06/01 02:15:03;;;;;;;5.03;2.75;;;18.70;94.80;;;;;;7388397;19;20151;-74
2023/06/01 02:17:29;;;;;;;3.72;2.40;;;18.60;95.00;;;;;;7389026;19;20143;-74
2023/06/01 02:19:55;;;;;;;4.60;2.17;;;18.60;94.90;;;;;;7385481;19;20221;-74
2023/06/01 02:22:21;;;;;;;6.68;2.35;;;18.50;95.10;;;;;;7388054;19;20161;-74
2023/06/01 02:24:47;;;;;;;5.65;2.30;;;18.50;95.30;;;;;;7386405;19;20150;-73
2023/06/01 02:27:12;;;;;;;3.60;2.17;;;18.50;95.40;;;;;;7389150;19;20134;-74
2023/06/01 02:29:38;;;;;;;4.65;1.90;;;18.40;95.90;;;;;;7387956;19;20465;-73
2023/06/01 02:32:04;;;;;;;3.15;1.98;;;18.30;96.00;;;;;;7387519;19;20209;-73
2023/06/01 02:34:31;;;;;;;4.47;2.40;;;18.40;95.90;;;;;;7385658;19;20146;-73
2023/06/01 02:36:57;;;;;;;3.15;2.00;;;18.50;95.80;;;;;;7383218;19;20142;-74
2023/06/01 02:39:23;;;;;;;2.67;2.03;;;18.40;95.70;;;;;;7385225;19;20226;-73
2023/06/01 02:41:49;;;;;;;3.85;2.42;;;18.40;96.10;;;;;;7385000;19;20499;-73
2023/06/01 02:44:15;;;;;;;2.72;2.20;;;18.40;96.00;;;;;;7385255;19;20165;-73
2023/06/01 02:46:41;;;;;;;3.70;2.63;;;18.40;96.00;;;;;;7386586;19;20134;-73
2023/06/01 02:49:06;;;;;;;3.53;2.22;;;18.20;96.20;;;;;;7387379;19;20157;-74
2023/06/01 02:51:32;;;;;;;3.33;2.40;;;18.30;96.20;;;;;;7387767;19;20143;-74
2023/06/01 02:53:59;;;;;;;4.82;2.95;;;18.40;96.20;;;;;;7386145;19;20143;-72
2023/06/01 02:56:25;;;;;;;3.38;2.05;;;18.40;96.10;;;;;;7384270;19;20230;-73
2023/06/01 02:58:50;;;;;;;4.22;2.15;;;18.40;96.20;;;;;;7387706;19;20528;-73
2023/06/01 03:01:16;;;;;;;3.60;2.30;;;18.40;96.30;;;;;;7392452;19;20146;-73
2023/06/01 03:03:44;;;;;;;3.75;1.95;;;18.30;96.30;;;;;;7392382;19;20142;-73
2023/06/01 03:06:10;;;;;;;3.85;2.20;;;18.30;96.60;;;;;;7394047;19;20135;-73
2023/06/01 03:08:35;;;;;;;2.75;1.90;;;18.20;96.40;;;;;;7392309;19;20158;-73
2023/06/01 03:11:01;;;;;;;3.20;2.38;;;18.30;96.60;;;;;;7392446;19;20209;-73
2023/06/01 03:13:27;;;;;;;3.38;2.10;;;18.30;96.80;;;;;;7392585;19;20146;-73
2023/06/01 03:15:52;;;;;;;4.10;2.50;;;18.20;96.80;;;;;;7391180;19;20143;-73
2023/06/01 03:18:18;;;;;;;3.95;2.45;;;18.20;97.20;;;;;;7390991;19;20146;-74
2023/06/01 03:20:47;;;;;;;4.53;2.28;;;18.20;97.30;;;;;;7392498;19;20146;-74
2023/06/01 03:23:13;;;;;;;2.65;1.88;;;18.10;97.30;;;;;;7390131;19;20192;-74
2023/06/01 03:25:38;;;;;;;4.20;2.22;;;18.10;97.40;;;;;;7392691;19;20138;-74
2023/06/01 03:28:05;;;;;;;2.80;2.05;;;18.10;97.30;;;;;;7393201;19;20160;-74
2023/06/01 03:30:31;;;;;;;2.58;2.30;;;18.10;97.50;;;;;;7392129;19;20162;-73
2023/06/01 03:32:57;;;;;;;3.15;2.20;;;18.10;97.60;;;;;;7389646;19;20188;-73
2023/06/01 03:35:23;;;;;;;2.38;2.00;;;18.10;97.70;;;;;;7391982;19;20168;-73
2023/06/01 03:37:48;;;;;;;3.80;2.38;;;18.20;97.80;;;;;;7392259;19;20161;-74
2023/06/01 03:40:14;;;;;;;4.40;1.98;;;18.10;97.90;;;;;;7390512;19;20154;-73
2023/06/01 03:42:45;;;;;;;2.95;1.80;;;18.10;98.00;;;;;;7389362;19;20693;-73
2023/06/01 03:45:13;;;;;;;2.80;2.10;;;18.10;98.00;;;;;;7392366;19;20126;-74
2023/06/01 03:47:39;;;;;;;5.35;2.25;;;18.20;98.10;;;;;;7392303;19;20138;-74
2023/06/01 03:50:07;;;;;;;5.90;1.92;;;18.20;98.20;;;;;;7390780;19;20138;-73
2023/06/01 03:52:33;;;;;;;3.55;2.13;;;18.10;98.30;;;;;;7390364;19;20157;-73
2023/06/01 03:55:01;;;;;;;2.88;1.98;;;18.00;98.40;;;;;;7391265;19;20149;-74
2023/06/01 03:57:27;;;;;;;4.28;1.98;;;18.10;98.40;;;;;;7391965;19;20632;-73
2023/06/01 03:59:53;;;;;;;3.72;2.28;;;18.10;98.50;;;;;;7390350;19;20134;-74
2023/06/01 04:02:19;;;;;;;4.00;2.30;;;18.10;98.70;;;;;;7391898;19;20587;-74
2023/06/01 04:04:46;;;;;;;3.53;2.05;;;18.00;98.70;;;;;;7389131;19;20205;-74
2023/06/01 04:07:18;;;;;;;7.22;2.35;;;18.10;98.90;;;;;;7390932;19;20138;-74
2023/06/01 04:09:47;;;;;;;3.75;2.10;;;18.00;98.90;;;;;;7388889;19;20219;-74
2023/06/01 04:12:14;;;;;;;3.33;1.80;;;18.00;98.90;;;;;;7387124;19;20135;-74
2023/06/01 04:14:40;;;;;;;3.38;2.08;;;18.00;98.90;;;;;;7389295;19;20139;-73
2023/06/01 04:17:06;;;;;;;4.80;2.20;;;18.00;99.10;;;;;;7389333;19;20149;-73
2023/06/01 04:19:33;;;;;;;3.80;2.05;;;17.90;99.40;;;;;;7385962;19;20206;-73
2023/06/01 04:21:59;;;;;;;5.13;2.15;;;17.90;99.60;;;;;;7388498;19;20602;-73
2023/06/01 04:24:25;;;;;;;3.35;2.30;;;18.00;99.60;;;;;;7387663;19;20147;-73
2023/06/01 04:26:51;;;;;;;4.10;1.90;;;18.00;99.50;;;;;;7389141;19;20135;-74
2023/06/01 04:29:19;;;;;;;3.58;2.05;;;18.00;99.50;;;;;;7387666;19;20142;-74
2023/06/01 04:31:48;;;;;;;4.40;1.90;;;18.00;99.50;;;;;;7388870;19;20538;-74
2023/06/01 04:34:13;;;;;;;3.30;2.03;;;17.80;99.70;;;;;;7389840;19;20139;-74
2023/06/01 04:36:40;;;;;;;3.20;2.17;;;17.70;99.90;;;;;;7388390;19;20150;-75
2023/06/01 04:39:07;;;;;;;4.15;2.17;;;17.90;99.90;;;;;;7390166;19;20138;-74
2023/06/01 04:41:35;;;;;;;4.05;2.20;;;18.00;99.90;;;;;;7390263;19;20546;-74
2023/06/01 04:44:05;;;;;;;4.05;2.17;;;18.00;99.90;;;;;;7390283;19;20474;-75
2023/06/01 04:46:31;;;;;;;5.60;2.30;;;18.00;99.90;;;;;;7388104;19;20145;-73
2023/06/01 04:48:59;;;;;;;4.35;2.10;;;18.10;99.90;;;;;;7388943;19;20490;-74
2023/06/01 04:51:26;;;;;;;3.47;2.30;;;18.10;99.90;;;;;;7390723;19;20267;-75
2023/06/01 04:53:53;;;;;;;3.22;1.92;;;18.10;99.90;;;;;;7389725;19;20563;-74
2023/06/01 04:56:24;;;;;;;2.20;1.88;;;18.20;99.90;;;;;;7388248;19;20165;-74
2023/06/01 04:58:51;;;;;;;4.70;2.15;;;18.10;99.90;;;;;;7389492;19;20131;-75
2023/06/01 05:01:17;;;;;;;3.08;2.15;;;18.10;99.90;;;;;;7390752;19;20143;-73
2023/06/01 05:03:45;;;;;;;4.18;2.35;;;18.10;99.90;;;;;;7389417;19;20170;-74
2023/06/01 05:06:13;;;;;;;3.00;2.25;;;18.10;99.90;;;;;;7388665;19;20141;-74
2023/06/01 05:08:40;;;;;;;3.08;2.17;;;18.20;99.90;;;;;;7389504;19;20143;-74
2023/06/01 05:11:06;;;;;;;3.65;2.00;;;18.20;99.90;;;;;;7390772;19;20627;-76
2023/06/01 05:13:35;;;;;;;2.75;2.00;;;18.30;99.90;;;;;;7388143;19;20496;-75
2023/06/01 05:16:02;;;;;;;3.10;2.20;;;18.20;99.90;;;;;;7385803;19;20159;-73
2023/06/01 05:18:27;;;;;;;3.03;2.20;;;18.20;99.90;;;;;;7388434;19;20157;-75
2023/06/01 05:20:53;;;;;;;5.10;3.05;;;18.20;99.90;;;;;;7389699;19;20147;-75
2023/06/01 05:23:19;;;;;;;3.05;2.17;;;18.20;99.90;;;;;;7387777;19;20855;-75
2023/06/01 05:25:45;;;;;;;3.88;2.30;;;18.30;99.90;;;;;;7387251;19;20574;-75
2023/06/01 05:28:10;;;;;;;3.47;2.10;;;18.30;99.90;;;;;;7388623;19;20145;-76
2023/06/01 05:30:36;;;;;;;4.82;2.25;;;18.30;99.90;;;;;;7389546;19;20546;-75
2023/06/01 05:33:03;;;;;;;7.78;2.15;;;18.20;99.90;;;;;;7388085;19;20209;-77
2023/06/01 05:35:29;;;;;;;5.07;2.10;;;18.20;99.90;;;;;;7388618;19;20202;-76
2023/06/01 05:37:55;;;;;;;4.20;2.00;;;18.30;99.90;;;;;;7388112;19;20139;-75
2023/06/01 05:40:21;;;;;;;3.08;1.77;;;18.40;99.70;;;;;;7386406;19;20184;-76
2023/06/01 05:42:47;;;;;;;2.92;1.90;;;18.40;99.90;;;;;;7384471;19;20147;-76
2023/06/01 05:45:13;;;;;;;4.53;2.30;;;18.40;99.90;;;;;;7385528;19;20206;-74
2023/06/01 05:47:38;;;;;;;3.85;2.30;;;18.40;99.90;;;;;;7387108;19;20178;-76
2023/06/01 05:50:05;;;;;;;3.28;1.88;;;18.60;99.50;;;;;;7386334;19;20133;-77
2023/06/01 05:52:31;;;;;;;3.20;1.95;;;18.60;99.40;;;;;;7388219;19;20412;-76
2023/06/01 05:54:57;;;;;;;6.53;2.67;;;18.60;99.50;;;;;;7385703;19;20161;-75
2023/06/01 05:57:23;;;;;;;3.28;1.88;;;18.60;99.60;;;;;;7383443;19;20483;-77
2023/06/01 05:59:49;;;;;;;3.30;2.20;;;18.60;99.70;;;;;;7389467;19;20141;-76
2023/06/01 06:02:15;;;;;;;3.92;2.05;;;18.50;99.50;;;;;;7385505;19;20135;-76
2023/06/01 06:04:41;;;;;;;2.33;1.95;;;18.70;99.50;;;;;;7390111;19;20443;-76
2023/06/01 06:07:07;;;;;;;4.28;1.88;;;18.60;99.90;;;;;;7386709;19;20131;-76
2023/06/01 06:09:33;;;;;;;3.50;1.88;;;18.80;99.40;;;;;;7388572;19;20134;-76
2023/06/01 06:11:59;;;;;;;5.78;2.08;;;18.80;99.10;;;;;;7387396;19;20148;-77
2023/06/01 06:14:25;;;;;;;3.42;2.00;;;19.20;98.60;;;;;;7391349;19;20153;-77
2023/06/01 06:16:51;;;;;;;4.70;2.20;;;20.30;97.70;;;;;;7385254;19;20142;-78
2023/06/01 06:19:17;;;;;;;4.18;2.00;;;22.50;94.10;;;;;;7387772;19;20135;-78
2023/06/01 06:21:43;;;;;;;8.10;2.70;;;24.10;91.70;;;;;;7387879;19;20131;-78
2023/06/01 06:24:09;;;;;;;4.45;2.42;;;25.60;87.30;;;;;;7388032;19;20138;-79
2023/06/01 06:26:35;;;;;;;5.18;2.42;;;27.00;81.80;;;;;;7384751;19;20597;-79
2023/06/01 06:29:00;;;;;;;3.80;2.53;;;27.60;78.30;;;;;;7385660;19;20142;-78
2023/06/01 06:31:26;;;;;;;4.10;2.30;;;28.00;76.30;;;;;;7386494;19;20151;-79
2023/06/01 06:33:52;;;;;;;3.50;2.20;;;28.70;73.80;;;;;;7384662;19;20131;-78
2023/06/01 06:36:18;;;;;;;3.65;2.22;;;28.80;72.60;;;;;;7386366;19;20273;-81
2023/06/01 06:38:45;;;;;;;5.72;2.47;;;29.40;71.40;;;;;;7389772;19;20248;-77
2023/06/01 06:41:10;;;;;;;6.13;2.50;;;29.90;69.70;;;;;;7386932;19;20143;-79
2023/06/01 06:43:36;;;;;;;4.72;2.80;;;29.90;68.60;;;;;;7385768;19;20138;-78
2023/06/01 06:46:03;;;;;;;5.70;2.30;;;29.30;69.40;;;;;;7388252;19;20206;-79
2023/06/01 06:48:28;;;;;;;10.48;2.20;;;29.40;69.70;;;;;;7386811;19;20147;-78
2023/06/01 06:50:55;;;;;;;4.10;2.03;;;29.50;69.70;;;;;;7384055;19;20265;-78
2023/06/01 06:53:20;;;;;;;5.40;2.38;;;29.70;69.00;;;;;;7383844;19;20163;-79
2023/06/01 06:55:46;;;;;;;3.97;2.40;;;29.60;68.80;;;;;;7386734;19;20126;-79
2023/06/01 06:58:13;;;;;;;4.55;2.22;;;29.40;67.90;;;;;;7388266;19;20131;-77
2023/06/01 07:00:40;;;;;;;6.53;2.63;;;28.60;69.20;;;;;;7387419;19;20166;-77
2023/06/01 07:03:06;;;;;;;3.67;2.38;;;28.60;69.80;;;;;;7386473;19;20141;-77
2023/06/01 07:05:32;;;;;;;5.38;2.15;;;28.70;69.10;;;;;;7386247;19;20149;-79
2023/06/01 07:07:58;;;;;;;5.75;3.00;;;28.40;70.40;;;;;;7388766;19;20130;-80
2023/06/01 07:10:27;;;;;;;3.33;1.98;;;28.10;70.10;;;;;;7387332;19;20141;-79
2023/06/01 07:12:53;;;;;;;6.22;2.10;;;27.50;70.60;;;;;;7385573;19;20507;-78
2023/06/01 07:15:19;;;;;;;5.45;2.40;;;27.50;71.30;;;;;;7385331;19;20135;-78
2023/06/01 07:17:45;;;;;;;3.40;2.75;;;27.40;71.20;;;;;;7387601;19;20186;-82
2023/06/01 07:20:11;;;;;;;4.55;2.70;;;26.90;72.20;;;;;;7385861;19;20172;-80
2023/06/01 07:22:38;;;;;;;3.20;1.92;;;27.30;71.60;;;;;;7385922;19;20123;-80
2023/06/01 07:25:05;;;;;;;4.97;2.40;;;27.10;71.90;;;;;;7390013;19;20130;-83
2023/06/01 07:27:31;;;;;;;5.25;2.50;;;27.10;71.60;;;;;;7388655;19;20134;-81
2023/06/01 07:29:57;;;;;;;7.65;2.63;;;26.90;72.40;;;;;;7387957;19;20139;-79
2023/06/01 07:32:24;;;;;;;3.55;2.20;;;27.00;72.60;;;;;;7386245;19;20252;-80
2023/06/01 07:34:50;;;;;;;4.72;2.72;;;27.00;72.10;;;;;;7387531;19;20127;-80
2023/06/01 07:37:21;;;;;;;5.57;4.07;;;26.70;72.70;;;;;;7384190;19;20147;-82
2023/06/01 07:39:47;;;;;;;5.30;3.08;;;26.20;73.90;;;;;;7389993;19;20143;-81
2023/06/01 07:42:14;;;;;;;3.90;2.78;;;26.00;74.60;;;;;;7393206;19;20259;-80
2023/06/01 07:44:40;;;;;;;6.40;3.53;;;26.20;74.70;;;;;;7395779;19;20563;-78
2023/06/01 07:47:06;;;;;;;6.47;3.10;;;26.60;74.00;;;;;;7402834;19;20153;-81
2023/06/01 07:49:35;;;;;;;3.95;2.42;;;26.80;74.10;;;;;;7404173;19;20130;-80
2023/06/01 07:52:02;;;;;;;6.43;2.55;;;26.20;74.70;;;;;;7403003;19;20146;-81
2023/06/01 07:54:28;;;;;;;3.95;2.45;;;26.70;74.00;;;;;;7402774;19;20478;-79
2023/06/01 07:56:54;;;;;;;7.35;2.55;;;26.50;74.30;;;;;;7391320;19;20134;-77
2023/06/01 07:59:27;;;;;;;3.38;2.67;;;26.40;74.50;;;;;;7395055;19;20677;-81
2023/06/01 08:01:55;;;;;;;4.03;2.55;;;26.10;74.60;;;;;;7392090;19;20131;-79
2023/06/01 08:04:20;;;;;;;4.07;2.40;;;25.30;75.30;;;;;;7395160;19;20285;-80
2023/06/01 08:06:52;;;;;;;3.67;2.50;;;25.70;75.40;;;;;;7391714;19;20130;-80
2023/06/01 08:09:21;;;;;;;6.82;2.80;;;26.00;74.50;;;;;;7393336;19;20629;-79
2023/06/01 08:11:49;;;;;;;5.13;2.45;;;26.10;75.40;;;;;;7392050;19;20131;-79
2023/06/01 08:14:15;;;;;;;5.13;2.92;;;26.80;73.80;;;;;;7391337;19;20549;-78
2023/06/01 08:16:42;;;;;;;4.00;2.97;;;27.00;72.70;;;;;;7388172;19;20998;-77
2023/06/01 08:19:07;;;;;;;4.57;2.60;;;27.10;72.60;;;;;;7389971;19;20135;-79
2023/06/01 08:21:34;;;;;;;3.60;2.58;;;27.20;72.00;;;;;;7391053;19;20135;-79
2023/06/01 08:24:01;;;;;;;5.10;2.42;;;26.70;72.50;;;;;;7390522;19;20693;-79
2023/06/01 08:26:30;;;;;;;3.70;3.00;;;26.20;72.90;;;;;;7389552;19;20160;-81
2023/06/01 08:28:58;;;;;;;9.23;2.92;;;26.30;73.90;;;;;;7389572;19;20135;-77
2023/06/01 08:31:25;;;;;;;7.20;2.92;;;26.80;73.00;;;;;;7389946;19;20142;-84
2023/06/01 08:33:52;;;;;;;5.93;2.88;;;26.70;73.90;;;;;;7387966;19;20141;-81
2023/06/01 08:36:19;;;;;;;3.55;2.60;;;27.10;72.80;;;;;;7391034;19;20142;-83
2023/06/01 08:38:46;;;;;;;4.15;2.80;;;27.10;72.90;;;;;;7390522;19;20223;-76
2023/06/01 08:41:20;;;;;;;3.95;2.60;;;27.10;72.90;;;;;;7388731;19;20150;-79
2023/06/01 08:43:57;;;;;;;7.03;2.90;;;26.70;73.20;;;;;;7389109;19;20473;-87
2023/06/01 08:46:25;;;;;;;5.05;3.40;;;26.40;74.60;;;;;;7396989;19;20616;-86
2023/06/01 08:48:57;;;;;;;5.22;2.60;;;26.40;73.70;;;;;;7395244;19;20143;-90
2023/06/01 08:51:24;;;;;;;3.65;2.92;;;26.60;73.50;;;;;;7390350;19;20169;-84
2023/06/01 08:53:54;;;;;;;4.18;2.90;;;26.80;74.60;;;;;;7386464;19;20736;-88
2023/06/01 08:56:21;;;;;;;4.70;3.20;;;26.90;72.80;;;;;;7388582;19;20625;-83
2023/06/01 08:58:47;;;;;;;5.20;2.72;;;26.70;72.80;;;;;;7385909;19;20477;-82
2023/06/01 09:01:21;;;;;;;7.60;3.10;;;26.60;73.70;;;;;;7400031;19;20139;-82
2023/06/01 09:03:51;;;;;;;5.97;3.05;;;26.50;73.20;;;;;;7387604;19;20135;-82
2023/06/01 09:06:18;;;;;;;5.93;3.00;;;26.40;73.80;;;;;;7387486;19;20496;-78
2023/06/01 09:08:47;;;;;;;3.83;2.55;;;26.50;73.00;;;;;;7389566;19;20135;-76
2023/06/01 09:11:13;;;;;;;5.43;3.67;;;26.30;74.60;;;;;;7387828;19;20135;-77
2023/06/01 09:13:40;;;;;;;4.53;2.58;;;26.50;74.00;;;;;;7390864;19;20613;-77
2023/06/01 09:16:06;;;;;;;3.65;2.53;;;26.50;72.90;;;;;;7386952;19;20488;-76
2023/06/01 09:18:32;;;;;;;5.13;2.85;;;26.40;74.00;;;;;;7386096;19;20154;-78
2023/06/01 09:21:19;;;;;;;5.38;3.17;;;26.40;74.00;;;;;;7389611;19;20214;-77
2023/06/01 09:23:45;;;;;;;6.25;3.20;;;26.10;74.90;;;;;;7387381;19;20153;-77
2023/06/01 09:26:12;;;;;;;6.38;2.60;;;26.10;75.10;;;;;;7384461;19;20142;-79
2023/06/01 09:28:58;;;;;;;3.17;2.50;;;26.10;75.10;;;;;;7391131;19;20146;-78
2023/06/01 09:31:40;;;;;;;5.60;2.40;;;25.90;75.40;;;;;;7388342;19;20186;-78
2023/06/01 09:34:11;;;;;;;5.28;2.60;;;26.00;76.50;;;;;;7387445;19;20468;-83
2023/06/01 09:36:37;;;;;;;5.35;2.65;;;26.10;75.60;;;;;;7387331;19;20229;-83
2023/06/01 09:39:09;;;;;;;4.40;3.05;;;26.00;75.50;;;;;;7389449;19;20181;-82
2023/06/01 09:41:54;;;;;;;7.78;3.15;;;25.80;76.50;;;;;;7390139;19;20166;-84
2023/06/01 09:44:27;;;;;;;5.72;3.70;;;25.80;76.00;;;;;;7394476;19;20156;-83
2023/06/01 09:46:58;;;;;;;4.78;3.10;;;25.70;76.60;;;;;;7388472;19;20620;-82
2023/06/01 09:49:28;;;;;;;5.57;2.85;;;25.60;76.80;;;;;;7386538;19;20131;-85
2023/06/01 09:52:07;;;;;;;5.10;3.53;;;25.60;76.90;;;;;;7385074;19;20241;-84
2023/06/01 09:54:36;;;;;;;4.10;3.03;;;25.70;77.20;;;;;;7388928;19;20147;-84
2023/06/01 09:57:03;;;;;;;4.78;3.17;;;25.70;77.00;;;;;;7384352;19;20139;-83
2023/06/01 09:59:30;;;;;;;3.78;2.60;;;25.60;77.30;;;;;;7387537;19;20179;-82
2023/06/01 10:01:57;;;;;;;6.50;2.78;;;25.40;78.10;;;;;;7384780;19;20138;-80
2023/06/01 10:04:28;;;;;;;5.25;3.95;;;25.40;78.30;;;;;;7389271;19;20134;-83
2023/06/01 10:06:56;;;;;;;5.13;3.38;;;25.30;78.30;;;;;;7386815;19;20484;-79
2023/06/01 10:09:24;;;;;;;4.38;3.10;;;25.20;78.60;;;;;;7384956;19;20170;-78
2023/06/01 10:11:55;;;;;;;6.72;4.05;;;25.30;79.20;;;;;;7387306;19;20935;-79
2023/06/01 10:14:22;;;;;;;5.88;3.55;;;25.50;78.50;;;;;;7387396;19;20157;-80
2023/06/01 10:16:51;;;;;;;5.03;3.17;;;25.70;78.10;;;;;;7389816;19;20142;-81
2023/06/01 10:19:18;;;;;;;7.38;3.30;;;25.70;77.70;;;;;;7382840;19;20134;-83
2023/06/01 10:21:45;;;;;;;5.07;3.20;;;25.60;78.00;;;;;;7387960;19;20173;-79
2023/06/01 10:24:16;;;;;;;5.50;2.92;;;25.70;78.50;;;;;;7389656;19;20139;-77
2023/06/01 10:26:55;;;;;;;5.40;3.35;;;25.70;77.70;;;;;;7376811;19;20146;-80
2023/06/01 10:29:24;;;;;;;4.45;3.00;;;25.70;77.60;;;;;;7377122;19;20146;-83
2023/06/01 10:31:51;;;;;;;7.63;3.47;;;25.90;78.50;;;;;;7386619;19;20157;-79
2023/06/01 10:34:41;;;;;;;4.65;3.20;;;25.90;77.50;;;;;;7392857;19;20139;-80
2023/06/01 10:37:07;;;;;;;7.32;3.28;;;25.90;76.60;;;;;;7387267;19;20155;-79
2023/06/01 10:39:34;;;;;;;5.80;2.90;;;25.90;76.40;;;;;;7390482;19;20154;-80
2023/06/01 10:42:17;;;;;;;4.50;3.22;;;25.90;76.40;;;;;;7390331;19;20186;-81
2023/06/01 10:44:51;;;;;;;22.92;17.48;;;25.90;75.20;;;;;;7400259;19;20142;-86
2023/06/01 10:47:17;;;;;;;4.95;3.50;;;25.70;74.70;;;;;;7393675;19;20138;-77
2023/06/01 10:49:49;;;;;;;5.80;4.00;;;25.90;74.00;;;;;;7385351;19;20134;-77
2023/06/01 10:52:26;;;;;;;5.13;3.67;;;25.90;73.80;;;;;;7387771;19;20887;-75
2023/06/01 10:54:54;;;;;;;5.43;3.35;;;25.90;75.00;;;;;;7384890;19;20157;-81
2023/06/01 10:57:25;;;;;;;6.68;3.25;;;25.90;75.00;;;;;;7378930;19;20138;-79
2023/06/01 11:00:23;;;;;;;4.78;2.88;;;25.90;75.90;;;;;;7382001;19;20130;-75
2023/06/01 11:03:06;;;;;;;3.30;2.88;;;26.00;75.90;;;;;;7373565;19;20179;-77
2023/06/01 11:05:48;;;;;;;10.23;3.53;;;26.20;73.80;;;;;;7381081;19;20154;-76
2023/06/01 11:08:28;;;;;;;4.72;3.33;;;26.30;74.10;;;;;;7386399;19;20587;-75
2023/06/01 11:11:07;;;;;;;9.77;3.50;;;26.30;74.10;;;;;;7390270;19;20159;-76
2023/06/01 11:13:37;;;;;;;5.68;3.20;;;26.40;73.50;;;;;;7385953;19;20163;-78
2023/06/01 11:16:21;;;;;;;4.97;3.17;;;26.40;73.50;;;;;;7380244;19;20138;-83
2023/06/01 11:19:01;;;;;;;5.47;3.15;;;26.20;73.30;;;;;;7382358;19;20146;-76
2023/06/01 11:21:43;;;;;;;6.55;3.60;;;26.00;73.40;;;;;;7393854;19;20199;-75
2023/06/01 11:24:11;;;;;;;6.10;2.80;;;26.00;74.80;;;;;;7399276;19;20155;-76
2023/06/01 11:26:45;;;;;;;3.63;2.90;;;26.10;74.00;;;;;;7398358;19;20148;-75
2023/06/01 11:29:13;;;;;;;4.57;2.90;;;26.10;74.00;;;;;;7405198;19;20130;-79
2023/06/01 11:31:43;;;;;;;3.45;2.72;;;26.10;74.50;;;;;;7399378;19;20193;-77
2023/06/01 11:34:11;;;;;;;4.47;3.28;;;26.30;73.60;;;;;;7401657;19;20230;-76
2023/06/01 11:36:39;;;;;;;6.55;3.63;;;26.50;72.90;;;;;;7400286;19;20149;-77
2023/06/01 11:39:08;;;;;;;4.72;3.58;;;26.60;73.50;;;;;;7392867;19;20598;-75
2023/06/01 11:41:35;;;;;;;5.90;3.90;;;26.50;73.30;;;;;;7394402;19;20135;-76
2023/06/01 11:44:01;;;;;;;3.25;2.95;;;26.50;73.50;;;;;;7392291;19;20154;-76
2023/06/01 11:46:28;;;;;;;3.63;2.67;;;26.50;73.50;;;;;;7392130;19;20156;-77
2023/06/01 11:49:06;;;;;;;5.18;3.30;;;26.40;73.80;;;;;;7392404;19;20638;-77
2023/06/01 11:51:37;;;;;;;5.28;3.08;;;26.40;73.70;;;;;;7394279;19;20145;-76
2023/06/01 11:54:04;;;;;;;3.60;2.83;;;26.30;74.40;;;;;;7392230;19;20605;-77
2023/06/01 11:56:39;;;;;;;6.07;3.22;;;26.40;72.40;;;;;;7396085;19;20586;-78
2023/06/01 11:59:08;;;;;;;3.88;2.97;;;26.60;72.20;;;;;;7398624;19;20130;-83
2023/06/01 12:01:40;;;;;;;4.85;2.95;;;26.50;72.20;;;;;;7394755;19;20143;-77
2023/06/01 12:04:07;;;;;;;6.35;3.00;;;26.60;72.20;;;;;;7393340;19;20480;-76
2023/06/01 12:06:41;;;;;;;5.68;3.58;;;26.70;72.70;;;;;;7396057;19;20168;-76
2023/06/01 12:09:09;;;;;;;4.03;3.00;;;26.70;71.80;;;;;;7393886;19;20789;-76
2023/06/01 12:11:37;;;;;;;5.07;4.13;;;26.70;71.30;;;;;;7396221;19;20234;-76
2023/06/01 12:14:06;;;;;;;5.45;3.20;;;26.70;71.90;;;;;;7400947;19;20131;-77
2023/06/01 12:17:00;;;;;;;5.78;3.40;;;26.80;70.90;;;;;;7391853;19;20142;-76
2023/06/01 12:19:28;;;;;;;4.30;2.80;;;26.70;70.40;;;;;;7390460;19;20157;-76
2023/06/01 12:22:00;;;;;;;8.07;3.03;;;26.50;70.60;;;;;;7389999;19;20710;-77
2023/06/01 12:24:34;;;;;;;4.43;3.15;;;26.60;70.60;;;;;;7392615;19;20134;-75
2023/06/01 12:27:02;;;;;;;4.28;3.15;;;26.60;70.50;;;;;;7392513;19;20159;-75
2023/06/01 12:29:39;;;;;;;3.40;2.80;;;26.90;69.30;;;;;;7394025;19;20546;-76
2023/06/01 12:32:12;;;;;;;4.22;3.53;;;27.00;64.70;;;;;;7391140;19;20145;-76
2023/06/01 12:34:48;;;;;;;6.53;3.92;;;27.10;65.90;;;;;;7394342;19;20181;-76
2023/06/01 12:37:20;;;;;;;9.43;3.38;;;27.00;66.80;;;;;;7391606;19;20260;-76
2023/06/01 12:39:56;;;;;;;5.10;3.08;;;27.20;66.70;;;;;;7393292;19;20134;-76
2023/06/01 12:42:41;;;;;;;6.32;3.00;;;27.10;68.10;;;;;;7390292;19;20229;-76
2023/06/01 12:45:07;;;;;;;4.93;3.08;;;27.00;69.20;;;;;;7391396;19;20190;-75
2023/06/01 12:47:41;;;;;;;4.95;2.97;;;27.00;69.40;;;;;;7392371;19;20134;-76
2023/06/01 12:50:12;;;;;;;4.05;3.10;;;27.10;68.70;;;;;;7390782;19;20137;-76
2023/06/01 12:52:38;;;;;;;4.13;3.03;;;27.00;69.40;;;;;;7389482;19;20178;-76
2023/06/01 12:55:05;;;;;;;9.60;3.30;;;27.00;70.20;;;;;;7390414;19;20168;-73